地図

経路データ

SID SEASON NUMBER BASIN SUBBASIN NAME ISO_TIME NATURE LAT LON WMO_WIND WMO_PRES WMO_AGENCY TRACK_TYPE DIST2LAND LANDFALL IFLAG USA_AGENCY USA_ATCF_ID USA_LAT USA_LON USA_RECORD USA_STATUS USA_WIND USA_PRES USA_SSHS USA_R34_NE USA_R34_SE USA_R34_SW USA_R34_NW USA_R50_NE USA_R50_SE USA_R50_SW USA_R50_NW USA_R64_NE USA_R64_SE USA_R64_SW USA_R64_NW USA_POCI USA_ROCI USA_RMW USA_EYE TOKYO_LAT TOKYO_LON TOKYO_GRADE TOKYO_WIND TOKYO_PRES TOKYO_R50_DIR TOKYO_R50_LONG TOKYO_R50_SHORT TOKYO_R30_DIR TOKYO_R30_LONG TOKYO_R30_SHORT TOKYO_LAND CMA_LAT CMA_LON CMA_CAT CMA_WIND CMA_PRES HKO_LAT HKO_LON HKO_CAT HKO_WIND HKO_PRES NEWDELHI_LAT NEWDELHI_LON NEWDELHI_GRADE NEWDELHI_WIND NEWDELHI_PRES NEWDELHI_CI NEWDELHI_DP NEWDELHI_POCI REUNION_LAT REUNION_LON REUNION_TYPE REUNION_WIND REUNION_PRES REUNION_TNUM REUNION_CI REUNION_RMW REUNION_R34_NE REUNION_R34_SE REUNION_R34_SW REUNION_R34_NW REUNION_R50_NE REUNION_R50_SE REUNION_R50_SW REUNION_R50_NW REUNION_R64_NE REUNION_R64_SE REUNION_R64_SW REUNION_R64_NW BOM_LAT BOM_LON BOM_TYPE BOM_WIND BOM_PRES BOM_TNUM BOM_CI BOM_RMW BOM_R34_NE BOM_R34_SE BOM_R34_SW BOM_R34_NW BOM_R50_NE BOM_R50_SE BOM_R50_SW BOM_R50_NW BOM_R64_NE BOM_R64_SE BOM_R64_SW BOM_R64_NW BOM_ROCI BOM_POCI BOM_EYE BOM_POS_METHOD BOM_PRES_METHOD NADI_LAT NADI_LON NADI_CAT NADI_WIND NADI_PRES WELLINGTON_LAT WELLINGTON_LON WELLINGTON_WIND WELLINGTON_PRES DS824_LAT DS824_LON DS824_STAGE DS824_WIND DS824_PRES TD9636_LAT TD9636_LON TD9636_STAGE TD9636_WIND TD9636_PRES TD9635_LAT TD9635_LON TD9635_WIND TD9635_PRES TD9635_ROCI NEUMANN_LAT NEUMANN_LON NEUMANN_CLASS NEUMANN_WIND NEUMANN_PRES MLC_LAT MLC_LON MLC_CLASS MLC_WIND MLC_PRES USA_GUST BOM_GUST BOM_GUST_PER REUNION_GUST REUNION_GUST_PER USA_SEAHGT USA_SEARAD_NE USA_SEARAD_SE USA_SEARAD_SW USA_SEARAD_NW STORM_SPEED STORM_DIR
1924283N15093 1924 42 NI BB NOT_NAMED 1924-10-09 00:00:00 TS 15.1000 92.6000 main 198 198 _________O____ -1 15.1000 92.6000 TC 30 7 310
1924283N15093 1924 42 NI BB NOT_NAMED 1924-10-09 03:00:00 TS 15.3334 92.3085 main 218 214 _________PO___ -1 15.4501 92.1627 TC 30 15.1000 92.6000 1 9 308
1924283N15093 1924 42 NI BB NOT_NAMED 1924-10-09 06:00:00 TS 15.6609 91.8686 main 248 248 _________OP___ -1 15.8000 91.7000 TC 30 15.4524 92.1214 1 11 307
1924283N15093 1924 42 NI BB NOT_NAMED 1924-10-09 09:00:00 TS 16.0014 91.3901 main 299 299 _________PP___ -1 16.1500 91.1999 TC 30 15.8034 91.6437 1 11 307
1924283N15093 1924 42 NI BB NOT_NAMED 1924-10-09 12:00:00 TS 16.3264 90.9345 main 354 354 _________OP___ -1 16.5000 90.7000 TC 30 16.1527 91.1690 1 11 308
1924283N15093 1924 42 NI BB NOT_NAMED 1924-10-09 15:00:00 TS 16.6787 90.4712 main 402 402 _________PO___ -1 16.8573 90.2424 TC 30 16.5000 90.7000 1 11 308
1924283N15093 1924 42 NI BB NOT_NAMED 1924-10-09 18:00:00 TS 17.0220 90.0192 main 450 445 _________OP___ -1 17.2000 89.8000 TC 30 16.8440 90.2384 1 11 308
1924283N15093 1924 42 NI BB NOT_NAMED 1924-10-09 21:00:00 TS 17.3473 89.5635 main 452 390 _________PP___ -1 17.5149 89.3424 TC 30 17.1796 89.7846 1 11 306
1924283N15093 1924 42 NI BB NOT_NAMED 1924-10-10 00:00:00 TS 17.6502 89.1192 main 383 337 _________OP___ -1 17.8000 88.9000 TC 30 17.5003 89.3385 1 10 305
1924283N15093 1924 42 NI BB NOT_NAMED 1924-10-10 03:00:00 TS 17.9287 88.6999 main 337 283 _________PO___ -1 18.0573 88.4998 TC 30 17.8000 88.9000 1 10 304
1924283N15093 1924 42 NI BB NOT_NAMED 1924-10-10 06:00:00 TS 18.1877 88.2796 main 283 238 _________OP___ -1 18.3000 88.1000 TC 30 18.0754 88.4592 1 10 302
1924283N15093 1924 42 NI BB NOT_NAMED 1924-10-10 09:00:00 TS 18.4399 87.8347 main 231 179 _________PP___ -1 18.5500 87.6425 TC 30 18.3297 88.0269 1 10 301
1924283N15093 1924 42 NI BB NOT_NAMED 1924-10-10 12:00:00 TS 18.6846 87.4031 main 179 138 _________OP___ -1 18.8000 87.2000 TC 30 18.5692 87.6062 1 9 302
1924283N15093 1924 42 NI BB NOT_NAMED 1924-10-10 15:00:00 TS 18.9286 87.0212 main 138 94 _________PO___ -1 19.0573 86.8423 TC 30 18.8000 87.2000 1 8 306
1924283N15093 1924 42 NI BB NOT_NAMED 1924-10-10 18:00:00 TS 19.1672 86.6933 main 94 64 _________OP___ -1 19.3000 86.5000 TC 30 19.0344 86.8866 1 8 306
1924283N15093 1924 42 NI BB NOT_NAMED 1924-10-10 21:00:00 TS 19.3807 86.3751 main 64 30 _________PP___ -1 19.4993 86.1745 TC 30 19.2620 86.5756 1 8 301
1924283N15093 1924 42 NI BB NOT_NAMED 1924-10-11 00:00:00 TS 19.5919 85.9510 main 30 0 _________OP___ -1 19.7000 85.7000 TC 30 19.4837 86.2020 1 11 294
1924283N15093 1924 42 NI BB NOT_NAMED 1924-10-11 03:00:00 TS 19.8289 85.3089 main 0 0 _________PO___ -1 19.9579 84.9178 TC 30 19.7000 85.7000 1 15 289
1924283N15093 1924 42 NI BB NOT_NAMED 1924-10-11 06:00:00 TS 20.0606 84.4855 main 0 0 _________OP___ -1 20.2000 84.0000 TC 30 19.9212 84.9709 1 16 285
1924283N15093 1924 42 NI BB NOT_NAMED 1924-10-11 09:00:00 TS 20.2486 83.6240 main 0 0 _________PP___ -1 20.3648 83.1347 TC 30 20.1325 84.1133 1 17 282
1924283N15093 1924 42 NI BB NOT_NAMED 1924-10-11 12:00:00 TS 20.4136 82.7494 main 0 0 _________OP___ -1 20.5000 82.3000 TC 30 20.3272 83.1988 1 16 282
1924283N15093 1924 42 NI BB NOT_NAMED 1924-10-11 15:00:00 TS 20.5785 81.9175 main 0 0 _________PO___ -1 20.6570 81.5349 TC 30 20.5000 82.3000 1 15 282
1924283N15093 1924 42 NI BB NOT_NAMED 1924-10-11 18:00:00 TS 20.7209 81.1420 main 0 0 _________OP___ -1 20.8000 80.8000 TC 30 20.6419 81.4840 1 15 280
1924283N15093 1924 42 NI BB NOT_NAMED 1924-10-11 21:00:00 TS 20.8360 80.3607 main 0 0 _________PP___ -1 20.9075 80.0199 TC 30 20.7644 80.7016 1 14 279
1924283N15093 1924 42 NI BB NOT_NAMED 1924-10-12 00:00:00 TS 20.9399 79.6342 main 0 0 _________OP___ -1 21.0000 79.3000 TC 30 20.8797 79.9685 1 13 279
1924283N15093 1924 42 NI BB NOT_NAMED 1924-10-12 03:00:00 TS 21.0423 79.0061 main 0 0 _________PO___ -1 21.0846 78.7122 TC 30 21.0000 79.3000 1 11 281
1924283N15093 1924 42 NI BB NOT_NAMED 1924-10-12 06:00:00 TS 21.1527 78.4325 main 0 0 _________OP___ -1 21.2000 78.2000 TC 30 21.1054 78.6650 1 11 284
1924283N15093 1924 42 NI AS NOT_NAMED 1924-10-12 09:00:00 TS 21.2970 77.8846 main 0 0 _________PP___ -1 21.3700 77.6700 TC 30 21.2241 78.0992 1 10 289
1924283N15093 1924 42 NI AS NOT_NAMED 1924-10-12 12:00:00 TS 21.4904 77.4044 main 0 0 _________OP___ -1 21.6000 77.2000 TC 30 21.3808 77.6088 1 9 298
1924283N15093 1924 42 NI AS NOT_NAMED 1924-10-12 15:00:00 TS 21.7312 76.9987 main 0 0 _________PO___ -1 21.8624 76.7975 TC 30 21.6000 77.2000 1 9 308
1924283N15093 1924 42 NI AS NOT_NAMED 1924-10-12 18:00:00 TS 22.0427 76.6495 main 0 0 _________OP___ -1 22.2000 76.5000 TC 30 21.8853 76.7990 1 9 320
1924283N15093 1924 42 NI AS NOT_NAMED 1924-10-12 21:00:00 TS 22.4246 76.3799 main 0 0 _________PP___ -1 22.6124 76.2752 TC 30 22.2367 76.4845 1 9 335
1924283N15093 1924 42 NI AS NOT_NAMED 1924-10-13 00:00:00 TS 22.8724 76.2388 main 0 0 _________OP___ -1 23.1000 76.2000 TC 30 22.6448 76.2776 1 10 352
1924283N15093 1924 42 NI AS NOT_NAMED 1924-10-13 03:00:00 TS 23.3712 76.2449 main 0 0 _________PO___ -1 23.6425 76.2898 TC 30 23.1000 76.2000 1 10 7
1924283N15093 1924 42 NI AS NOT_NAMED 1924-10-13 06:00:00 TS 23.8990 76.3784 main 0 0 _________OP___ -1 24.2000 76.5000 TC 30 23.5979 76.2569 1 11 17
1924283N15093 1924 42 NI AS NOT_NAMED 1924-10-13 09:00:00 TS 24.4250 76.5877 main 0 0 _________PP___ -1 24.7150 76.7350 TC 30 24.1349 76.4405 1 11 23
1924283N15093 1924 42 NI AS NOT_NAMED 1924-10-13 12:00:00 TS 24.9397 76.8520 main 0 0 _________OP___ -1 25.2000 77.0000 TC 30 24.6794 76.7041 1 11 26
1924283N15093 1924 42 NI AS NOT_NAMED 1924-10-13 15:00:00 TS 25.4325 77.1214 main 0 0 _________PO___ -1 25.6649 77.2428 TC 30 25.2000 77.0000 1 10 27
1924283N15093 1924 42 NI AS NOT_NAMED 1924-10-13 18:00:00 TS 25.8561 77.3792 main 0 0 _________OP___ -1 26.1000 77.5000 TC 30 25.6732 77.2885 1 10 30
1924283N15093 1924 42 NI AS NOT_NAMED 1924-10-13 21:00:00 TS 26.2662 77.6548 main 0 0 _________PP___ -1 26.5077 77.7895 TC 30 26.1052 77.5650 1 9 32
1924283N15093 1924 42 NI AS NOT_NAMED 1924-10-14 00:00:00 TS 26.6397 77.9227 main 0 0 _________OP___ -1 26.9000 78.1000 TC 30 26.5096 77.8340 1 8 32
1924283N15093 1924 42 NI BB NOT_NAMED 1924-10-14 03:00:00 NR 26.9000 78.1000 main 0 __________O___ -1 TC 26.9000 78.1000 1 6 31

IBTrACS Databaseについて

本データベースは、米国NOAAが公開する1842年以降の世界の熱帯低気圧のベストトラックデータアーカイブInternational Best Track Archive for Climate Stewardship (IBTrACS)を、ウェブで閲覧しやすい形式に変換したものです。

最終更新日:2021-11-26